sensor_id;sensor_type;location;lat;lon;timestamp;P1;durP1;ratioP1;P2;durP2;ratioP2
54699;SDS011;40599;53.132;6.090;2023-03-31T00:00:45;34.67;;;8.98;;
54699;SDS011;40599;53.132;6.090;2023-03-31T00:03:12;37.65;;;8.43;;
54699;SDS011;40599;53.132;6.090;2023-03-31T00:05:45;43.45;;;9.35;;
54699;SDS011;40599;53.132;6.090;2023-03-31T00:08:12;45.47;;;9.45;;
54699;SDS011;40599;53.132;6.090;2023-03-31T00:10:42;43.42;;;8.95;;
54699;SDS011;40599;53.132;6.090;2023-03-31T00:13:10;48.42;;;9.20;;
54699;SDS011;40599;53.132;6.090;2023-03-31T00:15:36;38.92;;;8.95;;
54699;SDS011;40599;53.132;6.090;2023-03-31T00:18:02;36.33;;;8.02;;
54699;SDS011;40599;53.132;6.090;2023-03-31T00:20:28;37.72;;;7.65;;
54699;SDS011;40599;53.132;6.090;2023-03-31T00:22:57;44.90;;;8.85;;
54699;SDS011;40599;53.132;6.090;2023-03-31T00:25:25;44.53;;;8.13;;
54699;SDS011;40599;53.132;6.090;2023-03-31T00:27:52;46.78;;;8.05;;
54699;SDS011;40599;53.132;6.090;2023-03-31T00:30:18;41.50;;;8.40;;
54699;SDS011;40599;53.132;6.090;2023-03-31T00:32:45;36.00;;;7.88;;
54699;SDS011;40599;53.132;6.090;2023-03-31T00:35:11;38.40;;;7.55;;
54699;SDS011;40599;53.132;6.090;2023-03-31T00:37:37;41.75;;;8.43;;
54699;SDS011;40599;53.132;6.090;2023-03-31T00:40:03;36.00;;;6.90;;
54699;SDS011;40599;53.132;6.090;2023-03-31T00:42:39;41.30;;;8.55;;
54699;SDS011;40599;53.132;6.090;2023-03-31T00:47:39;38.78;;;8.70;;
54699;SDS011;40599;53.132;6.090;2023-03-31T00:50:12;44.17;;;8.68;;
54699;SDS011;40599;53.132;6.090;2023-03-31T00:52:39;35.22;;;7.88;;
54699;SDS011;40599;53.132;6.090;2023-03-31T00:55:11;39.88;;;8.80;;
54699;SDS011;40599;53.132;6.090;2023-03-31T00:57:38;42.35;;;8.32;;
54699;SDS011;40599;53.132;6.090;2023-03-31T01:00:10;47.65;;;9.73;;
54699;SDS011;40599;53.132;6.090;2023-03-31T01:02:44;36.42;;;7.88;;
54699;SDS011;40599;53.132;6.090;2023-03-31T01:05:20;42.80;;;8.52;;
54699;SDS011;40599;53.132;6.090;2023-03-31T01:07:47;42.05;;;8.65;;
54699;SDS011;40599;53.132;6.090;2023-03-31T01:10:14;36.17;;;7.65;;
54699;SDS011;40599;53.132;6.090;2023-03-31T01:12:41;46.70;;;8.50;;
54699;SDS011;40599;53.132;6.090;2023-03-31T01:15:08;44.60;;;7.22;;
54699;SDS011;40599;53.132;6.090;2023-03-31T01:17:35;47.63;;;8.13;;
54699;SDS011;40599;53.132;6.090;2023-03-31T01:27:44;35.40;;;8.45;;
54699;SDS011;40599;53.132;6.090;2023-03-31T01:30:22;33.03;;;7.72;;
54699;SDS011;40599;53.132;6.090;2023-03-31T01:41:12;39.63;;;7.50;;
54699;SDS011;40599;53.132;6.090;2023-03-31T01:47:14;44.33;;;9.15;;
54699;SDS011;40599;53.132;6.090;2023-03-31T01:49:27;38.95;;;8.18;;
54699;SDS011;40599;53.132;6.090;2023-03-31T01:51:59;30.77;;;7.57;;
54699;SDS011;40599;53.132;6.090;2023-03-31T01:55:19;34.58;;;7.70;;
54699;SDS011;40599;53.132;6.090;2023-03-31T01:59:52;39.42;;;8.65;;
54699;SDS011;40599;53.132;6.090;2023-03-31T02:02:26;36.35;;;7.75;;
54699;SDS011;40599;53.132;6.090;2023-03-31T02:04:56;42.50;;;8.57;;
54699;SDS011;40599;53.132;6.090;2023-03-31T02:07:30;30.25;;;6.82;;
54699;SDS011;40599;53.132;6.090;2023-03-31T02:09:58;39.33;;;7.75;;
54699;SDS011;40599;53.132;6.090;2023-03-31T02:12:25;34.25;;;7.72;;
54699;SDS011;40599;53.132;6.090;2023-03-31T02:14:53;36.13;;;7.75;;
54699;SDS011;40599;53.132;6.090;2023-03-31T02:17:21;22.88;;;6.93;;
54699;SDS011;40599;53.132;6.090;2023-03-31T02:19:59;28.10;;;7.10;;
54699;SDS011;40599;53.132;6.090;2023-03-31T02:22:28;36.10;;;7.60;;
54699;SDS011;40599;53.132;6.090;2023-03-31T02:24:56;35.80;;;8.25;;
54699;SDS011;40599;53.132;6.090;2023-03-31T02:27:27;43.35;;;7.78;;
54699;SDS011;40599;53.132;6.090;2023-03-31T02:29:55;31.60;;;6.95;;
54699;SDS011;40599;53.132;6.090;2023-03-31T02:34:48;35.97;;;7.25;;
54699;SDS011;40599;53.132;6.090;2023-03-31T02:37:14;35.20;;;7.95;;
54699;SDS011;40599;53.132;6.090;2023-03-31T02:39:40;34.15;;;6.88;;
54699;SDS011;40599;53.132;6.090;2023-03-31T02:42:08;27.20;;;6.70;;
54699;SDS011;40599;53.132;6.090;2023-03-31T02:44:38;32.20;;;6.78;;
54699;SDS011;40599;53.132;6.090;2023-03-31T02:47:05;36.28;;;7.47;;
54699;SDS011;40599;53.132;6.090;2023-03-31T02:49:32;27.92;;;7.45;;
54699;SDS011;40599;53.132;6.090;2023-03-31T03:07:39;34.50;;;6.45;;
54699;SDS011;40599;53.132;6.090;2023-03-31T03:10:11;25.88;;;6.85;;
54699;SDS011;40599;53.132;6.090;2023-03-31T03:12:41;29.20;;;6.53;;
54699;SDS011;40599;53.132;6.090;2023-03-31T03:15:12;32.13;;;6.70;;
54699;SDS011;40599;53.132;6.090;2023-03-31T03:17:40;23.05;;;6.13;;
54699;SDS011;40599;53.132;6.090;2023-03-31T03:20:08;27.52;;;7.03;;
54699;SDS011;40599;53.132;6.090;2023-03-31T03:22:35;26.90;;;6.90;;
54699;SDS011;40599;53.132;6.090;2023-03-31T03:25:02;27.35;;;6.35;;
54699;SDS011;40599;53.132;6.090;2023-03-31T03:29:55;31.95;;;7.28;;
54699;SDS011;40599;53.132;6.090;2023-03-31T03:32:21;23.88;;;6.47;;
54699;SDS011;40599;53.132;6.090;2023-03-31T03:34:47;21.33;;;6.45;;
54699;SDS011;40599;53.132;6.090;2023-03-31T03:37:13;20.65;;;5.93;;
54699;SDS011;40599;53.132;6.090;2023-03-31T03:39:39;28.33;;;6.53;;
54699;SDS011;40599;53.132;6.090;2023-03-31T03:42:05;27.92;;;7.00;;
54699;SDS011;40599;53.132;6.090;2023-03-31T03:44:32;21.95;;;6.75;;
54699;SDS011;40599;53.132;6.090;2023-03-31T03:46:58;25.88;;;6.25;;
54699;SDS011;40599;53.132;6.090;2023-03-31T03:49:24;18.38;;;6.30;;
54699;SDS011;40599;53.132;6.090;2023-03-31T03:51:50;22.10;;;6.22;;
54699;SDS011;40599;53.132;6.090;2023-03-31T03:54:16;21.23;;;7.40;;
54699;SDS011;40599;53.132;6.090;2023-03-31T03:56:43;25.23;;;7.60;;
54699;SDS011;40599;53.132;6.090;2023-03-31T03:59:09;26.27;;;7.30;;
54699;SDS011;40599;53.132;6.090;2023-03-31T04:01:36;20.85;;;7.50;;
54699;SDS011;40599;53.132;6.090;2023-03-31T04:04:02;25.88;;;7.45;;
54699;SDS011;40599;53.132;6.090;2023-03-31T04:06:28;22.08;;;8.18;;
54699;SDS011;40599;53.132;6.090;2023-03-31T04:08:55;23.90;;;8.40;;
54699;SDS011;40599;53.132;6.090;2023-03-31T04:11:21;18.05;;;7.93;;
54699;SDS011;40599;53.132;6.090;2023-03-31T04:13:47;22.95;;;8.30;;
54699;SDS011;40599;53.132;6.090;2023-03-31T04:16:14;30.83;;;9.80;;
54699;SDS011;40599;53.132;6.090;2023-03-31T04:18:40;24.75;;;8.82;;
54699;SDS011;40599;53.132;6.090;2023-03-31T04:21:07;25.98;;;8.82;;
54699;SDS011;40599;53.132;6.090;2023-03-31T04:23:36;20.75;;;9.45;;
54699;SDS011;40599;53.132;6.090;2023-03-31T04:26:09;22.73;;;9.70;;
54699;SDS011;40599;53.132;6.090;2023-03-31T04:28:35;19.83;;;10.30;;
54699;SDS011;40599;53.132;6.090;2023-03-31T04:31:02;20.08;;;8.60;;
54699;SDS011;40599;53.132;6.090;2023-03-31T04:33:30;23.33;;;9.68;;
54699;SDS011;40599;53.132;6.090;2023-03-31T04:35:58;18.75;;;9.10;;
54699;SDS011;40599;53.132;6.090;2023-03-31T04:38:31;26.98;;;9.15;;
54699;SDS011;40599;53.132;6.090;2023-03-31T04:40:58;24.33;;;8.43;;
54699;SDS011;40599;53.132;6.090;2023-03-31T04:43:24;24.40;;;9.13;;
54699;SDS011;40599;53.132;6.090;2023-03-31T04:45:51;19.80;;;8.88;;
54699;SDS011;40599;53.132;6.090;2023-03-31T04:48:17;29.23;;;9.25;;
54699;SDS011;40599;53.132;6.090;2023-03-31T04:50:45;28.10;;;9.18;;
54699;SDS011;40599;53.132;6.090;2023-03-31T04:53:11;26.58;;;9.70;;
54699;SDS011;40599;53.132;6.090;2023-03-31T04:55:37;29.35;;;9.27;;
54699;SDS011;40599;53.132;6.090;2023-03-31T04:58:03;21.45;;;8.52;;
54699;SDS011;40599;53.132;6.090;2023-03-31T05:00:29;20.42;;;8.75;;
54699;SDS011;40599;53.132;6.090;2023-03-31T05:02:55;25.52;;;9.27;;
54699;SDS011;40599;53.132;6.090;2023-03-31T05:05:22;22.98;;;9.00;;
54699;SDS011;40599;53.132;6.090;2023-03-31T05:07:48;27.50;;;9.80;;
54699;SDS011;40599;53.132;6.090;2023-03-31T05:10:14;27.08;;;9.60;;
54699;SDS011;40599;53.132;6.090;2023-03-31T05:12:40;21.15;;;9.68;;
54699;SDS011;40599;53.132;6.090;2023-03-31T05:15:07;25.35;;;9.63;;
54699;SDS011;40599;53.132;6.090;2023-03-31T05:17:33;24.77;;;10.32;;
54699;SDS011;40599;53.132;6.090;2023-03-31T05:20:00;22.48;;;10.10;;
54699;SDS011;40599;53.132;6.090;2023-03-31T05:22:32;25.33;;;10.30;;
54699;SDS011;40599;53.132;6.090;2023-03-31T05:24:58;25.63;;;10.40;;
54699;SDS011;40599;53.132;6.090;2023-03-31T05:27:25;29.00;;;9.90;;
54699;SDS011;40599;53.132;6.090;2023-03-31T05:29:51;27.00;;;10.32;;
54699;SDS011;40599;53.132;6.090;2023-03-31T05:32:17;24.45;;;10.65;;
54699;SDS011;40599;53.132;6.090;2023-03-31T05:34:43;29.85;;;10.27;;
54699;SDS011;40599;53.132;6.090;2023-03-31T05:37:10;27.55;;;11.27;;
54699;SDS011;40599;53.132;6.090;2023-03-31T05:39:36;26.60;;;10.20;;
54699;SDS011;40599;53.132;6.090;2023-03-31T05:42:02;25.80;;;10.63;;
54699;SDS011;40599;53.132;6.090;2023-03-31T05:44:30;25.65;;;11.63;;
54699;SDS011;40599;53.132;6.090;2023-03-31T05:46:56;27.92;;;11.30;;
54699;SDS011;40599;53.132;6.090;2023-03-31T05:49:22;22.73;;;10.40;;
54699;SDS011;40599;53.132;6.090;2023-03-31T05:51:48;21.30;;;9.10;;
54699;SDS011;40599;53.132;6.090;2023-03-31T05:54:15;26.05;;;11.60;;
54699;SDS011;40599;53.132;6.090;2023-03-31T05:56:42;18.45;;;10.50;;
54699;SDS011;40599;53.132;6.090;2023-03-31T05:59:08;21.85;;;11.20;;
54699;SDS011;40599;53.132;6.090;2023-03-31T06:01:34;27.08;;;11.32;;
54699;SDS011;40599;53.132;6.090;2023-03-31T06:04:00;18.85;;;10.65;;
54699;SDS011;40599;53.132;6.090;2023-03-31T06:06:26;21.85;;;10.38;;
54699;SDS011;40599;53.132;6.090;2023-03-31T06:08:52;21.65;;;10.57;;
54699;SDS011;40599;53.132;6.090;2023-03-31T06:11:19;24.30;;;10.23;;
54699;SDS011;40599;53.132;6.090;2023-03-31T06:13:46;19.02;;;10.43;;
54699;SDS011;40599;53.132;6.090;2023-03-31T06:16:12;22.13;;;10.35;;
54699;SDS011;40599;53.132;6.090;2023-03-31T06:18:39;20.90;;;8.63;;
54699;SDS011;40599;53.132;6.090;2023-03-31T06:21:06;25.42;;;9.40;;
54699;SDS011;40599;53.132;6.090;2023-03-31T06:23:33;18.67;;;9.32;;
54699;SDS011;40599;53.132;6.090;2023-03-31T06:26:00;18.02;;;8.07;;
54699;SDS011;40599;53.132;6.090;2023-03-31T06:28:26;15.57;;;8.07;;
54699;SDS011;40599;53.132;6.090;2023-03-31T06:31:03;15.35;;;8.05;;
54699;SDS011;40599;53.132;6.090;2023-03-31T06:33:30;19.30;;;7.53;;
54699;SDS011;40599;53.132;6.090;2023-03-31T06:35:56;19.98;;;8.35;;
54699;SDS011;40599;53.132;6.090;2023-03-31T06:38:25;16.67;;;7.68;;
54699;SDS011;40599;53.132;6.090;2023-03-31T06:40:52;15.40;;;7.88;;
54699;SDS011;40599;53.132;6.090;2023-03-31T06:43:18;15.55;;;8.00;;
54699;SDS011;40599;53.132;6.090;2023-03-31T06:45:45;18.58;;;7.70;;
54699;SDS011;40599;53.132;6.090;2023-03-31T06:48:11;17.15;;;7.85;;
54699;SDS011;40599;53.132;6.090;2023-03-31T06:50:38;14.75;;;6.85;;
54699;SDS011;40599;53.132;6.090;2023-03-31T06:53:05;17.15;;;7.30;;
54699;SDS011;40599;53.132;6.090;2023-03-31T06:55:31;15.95;;;7.68;;
54699;SDS011;40599;53.132;6.090;2023-03-31T06:57:58;18.33;;;6.88;;
54699;SDS011;40599;53.132;6.090;2023-03-31T07:00:24;10.90;;;6.90;;
54699;SDS011;40599;53.132;6.090;2023-03-31T07:02:51;16.33;;;7.15;;
54699;SDS011;40599;53.132;6.090;2023-03-31T07:05:17;17.00;;;7.60;;
54699;SDS011;40599;53.132;6.090;2023-03-31T07:07:44;14.88;;;6.85;;
54699;SDS011;40599;53.132;6.090;2023-03-31T07:10:10;8.48;;;6.32;;
54699;SDS011;40599;53.132;6.090;2023-03-31T07:12:36;11.40;;;6.72;;
54699;SDS011;40599;53.132;6.090;2023-03-31T07:15:02;13.80;;;7.20;;
54699;SDS011;40599;53.132;6.090;2023-03-31T07:17:29;10.18;;;7.45;;
54699;SDS011;40599;53.132;6.090;2023-03-31T07:19:55;7.43;;;6.22;;
54699;SDS011;40599;53.132;6.090;2023-03-31T07:22:21;11.05;;;7.15;;
54699;SDS011;40599;53.132;6.090;2023-03-31T07:24:48;11.73;;;6.40;;
54699;SDS011;40599;53.132;6.090;2023-03-31T07:27:14;14.27;;;6.40;;
54699;SDS011;40599;53.132;6.090;2023-03-31T07:29:40;14.18;;;7.38;;
54699;SDS011;40599;53.132;6.090;2023-03-31T07:32:06;17.45;;;7.05;;
54699;SDS011;40599;53.132;6.090;2023-03-31T07:34:32;13.10;;;6.68;;
54699;SDS011;40599;53.132;6.090;2023-03-31T07:36:59;14.48;;;6.20;;
54699;SDS011;40599;53.132;6.090;2023-03-31T07:39:25;10.52;;;6.40;;
54699;SDS011;40599;53.132;6.090;2023-03-31T07:41:51;13.00;;;6.57;;
54699;SDS011;40599;53.132;6.090;2023-03-31T07:44:17;12.27;;;6.82;;
54699;SDS011;40599;53.132;6.090;2023-03-31T07:46:45;13.23;;;6.57;;
54699;SDS011;40599;53.132;6.090;2023-03-31T07:49:11;11.48;;;6.18;;
54699;SDS011;40599;53.132;6.090;2023-03-31T07:51:40;11.98;;;7.00;;
54699;SDS011;40599;53.132;6.090;2023-03-31T07:54:06;13.27;;;6.40;;
54699;SDS011;40599;53.132;6.090;2023-03-31T07:56:32;14.57;;;6.68;;
54699;SDS011;40599;53.132;6.090;2023-03-31T07:58:58;13.95;;;7.03;;
54699;SDS011;40599;53.132;6.090;2023-03-31T08:01:25;12.80;;;6.93;;
54699;SDS011;40599;53.132;6.090;2023-03-31T08:03:52;13.20;;;6.97;;
54699;SDS011;40599;53.132;6.090;2023-03-31T08:06:22;17.88;;;7.28;;
54699;SDS011;40599;53.132;6.090;2023-03-31T08:08:49;8.68;;;7.00;;
54699;SDS011;40599;53.132;6.090;2023-03-31T08:11:15;11.23;;;6.85;;
54699;SDS011;40599;53.132;6.090;2023-03-31T08:13:42;10.63;;;6.45;;
54699;SDS011;40599;53.132;6.090;2023-03-31T08:16:08;15.40;;;7.68;;
54699;SDS011;40599;53.132;6.090;2023-03-31T08:18:34;13.88;;;7.60;;
54699;SDS011;40599;53.132;6.090;2023-03-31T08:21:00;13.05;;;7.03;;
54699;SDS011;40599;53.132;6.090;2023-03-31T08:23:26;11.52;;;6.88;;
54699;SDS011;40599;53.132;6.090;2023-03-31T08:25:52;13.32;;;7.38;;
54699;SDS011;40599;53.132;6.090;2023-03-31T08:28:19;11.38;;;7.63;;
54699;SDS011;40599;53.132;6.090;2023-03-31T08:30:45;10.65;;;6.82;;
54699;SDS011;40599;53.132;6.090;2023-03-31T08:33:12;10.13;;;6.63;;
54699;SDS011;40599;53.132;6.090;2023-03-31T08:35:38;12.32;;;6.72;;
54699;SDS011;40599;53.132;6.090;2023-03-31T08:38:04;12.27;;;6.50;;
54699;SDS011;40599;53.132;6.090;2023-03-31T08:40:31;14.13;;;7.18;;
54699;SDS011;40599;53.132;6.090;2023-03-31T08:43:05;11.55;;;7.00;;
54699;SDS011;40599;53.132;6.090;2023-03-31T08:45:34;9.82;;;6.72;;
54699;SDS011;40599;53.132;6.090;2023-03-31T08:48:02;11.23;;;6.93;;
54699;SDS011;40599;53.132;6.090;2023-03-31T08:50:29;10.82;;;6.15;;
54699;SDS011;40599;53.132;6.090;2023-03-31T08:53:07;15.52;;;6.43;;
54699;SDS011;40599;53.132;6.090;2023-03-31T08:55:42;11.20;;;6.00;;
54699;SDS011;40599;53.132;6.090;2023-03-31T09:01:25;11.77;;;6.60;;
54699;SDS011;40599;53.132;6.090;2023-03-31T09:04:10;11.05;;;6.68;;
54699;SDS011;40599;53.132;6.090;2023-03-31T09:09:11;13.80;;;6.45;;
54699;SDS011;40599;53.132;6.090;2023-03-31T09:11:45;15.45;;;6.82;;
54699;SDS011;40599;53.132;6.090;2023-03-31T09:14:15;11.55;;;6.38;;
54699;SDS011;40599;53.132;6.090;2023-03-31T09:19:37;13.48;;;6.72;;
54699;SDS011;40599;53.132;6.090;2023-03-31T09:22:05;10.93;;;6.43;;
54699;SDS011;40599;53.132;6.090;2023-03-31T09:24:40;13.40;;;6.85;;
54699;SDS011;40599;53.132;6.090;2023-03-31T09:27:10;13.20;;;6.45;;
54699;SDS011;40599;53.132;6.090;2023-03-31T09:32:17;11.73;;;7.40;;
54699;SDS011;40599;53.132;6.090;2023-03-31T09:34:44;11.80;;;6.68;;
54699;SDS011;40599;53.132;6.090;2023-03-31T09:39:37;12.75;;;6.47;;
54699;SDS011;40599;53.132;6.090;2023-03-31T09:42:03;13.10;;;5.70;;
54699;SDS011;40599;53.132;6.090;2023-03-31T09:45:03;12.15;;;7.03;;
54699;SDS011;40599;53.132;6.090;2023-03-31T09:47:38;10.70;;;6.55;;
54699;SDS011;40599;53.132;6.090;2023-03-31T09:50:07;8.68;;;6.07;;
54699;SDS011;40599;53.132;6.090;2023-03-31T09:52:36;9.13;;;6.32;;
54699;SDS011;40599;53.132;6.090;2023-03-31T09:55:05;13.93;;;6.03;;
54699;SDS011;40599;53.132;6.090;2023-03-31T09:57:33;9.05;;;5.95;;
54699;SDS011;40599;53.132;6.090;2023-03-31T10:00:04;7.97;;;5.93;;
54699;SDS011;40599;53.132;6.090;2023-03-31T10:02:44;11.05;;;5.82;;
54699;SDS011;40599;53.132;6.090;2023-03-31T10:07:52;9.63;;;5.32;;
54699;SDS011;40599;53.132;6.090;2023-03-31T10:10:30;10.88;;;5.90;;
54699;SDS011;40599;53.132;6.090;2023-03-31T10:13:08;12.23;;;6.03;;
54699;SDS011;40599;53.132;6.090;2023-03-31T10:15:38;7.78;;;5.80;;
54699;SDS011;40599;53.132;6.090;2023-03-31T10:18:04;10.13;;;6.00;;
54699;SDS011;40599;53.132;6.090;2023-03-31T10:20:38;10.15;;;5.70;;
54699;SDS011;40599;53.132;6.090;2023-03-31T10:25:49;13.20;;;6.07;;
54699;SDS011;40599;53.132;6.090;2023-03-31T10:28:17;10.52;;;5.32;;
54699;SDS011;40599;53.132;6.090;2023-03-31T10:30:50;11.65;;;6.05;;
54699;SDS011;40599;53.132;6.090;2023-03-31T10:33:18;11.13;;;6.07;;
54699;SDS011;40599;53.132;6.090;2023-03-31T10:35:48;9.57;;;6.00;;
54699;SDS011;40599;53.132;6.090;2023-03-31T10:38:23;13.15;;;6.45;;
54699;SDS011;40599;53.132;6.090;2023-03-31T10:40:50;11.00;;;6.13;;
54699;SDS011;40599;53.132;6.090;2023-03-31T10:43:17;11.80;;;6.38;;
54699;SDS011;40599;53.132;6.090;2023-03-31T10:45:48;10.45;;;6.00;;
54699;SDS011;40599;53.132;6.090;2023-03-31T10:48:16;9.43;;;6.38;;
54699;SDS011;40599;53.132;6.090;2023-03-31T10:50:42;8.93;;;6.32;;
54699;SDS011;40599;53.132;6.090;2023-03-31T10:53:13;14.20;;;6.05;;
54699;SDS011;40599;53.132;6.090;2023-03-31T10:55:50;13.20;;;7.13;;
54699;SDS011;40599;53.132;6.090;2023-03-31T11:16:49;12.38;;;5.75;;
54699;SDS011;40599;53.132;6.090;2023-03-31T11:22:02;12.40;;;6.80;;
54699;SDS011;40599;53.132;6.090;2023-03-31T11:29:47;10.45;;;4.80;;
54699;SDS011;40599;53.132;6.090;2023-03-31T11:32:20;9.13;;;4.57;;
54699;SDS011;40599;53.132;6.090;2023-03-31T11:35:02;10.37;;;4.53;;
54699;SDS011;40599;53.132;6.090;2023-03-31T11:42:34;9.05;;;4.78;;
54699;SDS011;40599;53.132;6.090;2023-03-31T11:45:12;13.37;;;4.80;;
54699;SDS011;40599;53.132;6.090;2023-03-31T11:47:40;12.07;;;4.90;;
54699;SDS011;40599;53.132;6.090;2023-03-31T11:50:18;10.88;;;5.53;;
54699;SDS011;40599;53.132;6.090;2023-03-31T11:52:49;8.82;;;4.93;;
54699;SDS011;40599;53.132;6.090;2023-03-31T11:55:18;12.50;;;5.53;;
54699;SDS011;40599;53.132;6.090;2023-03-31T11:58:02;8.55;;;4.93;;
54699;SDS011;40599;53.132;6.090;2023-03-31T12:00:30;9.88;;;4.50;;
54699;SDS011;40599;53.132;6.090;2023-03-31T12:05:43;7.55;;;4.57;;
54699;SDS011;40599;53.132;6.090;2023-03-31T12:08:25;6.85;;;4.75;;
54699;SDS011;40599;53.132;6.090;2023-03-31T12:11:04;8.05;;;4.82;;
54699;SDS011;40599;53.132;6.090;2023-03-31T12:16:20;9.32;;;5.32;;
54699;SDS011;40599;53.132;6.090;2023-03-31T12:21:16;12.67;;;5.87;;
54699;SDS011;40599;53.132;6.090;2023-03-31T12:23:44;11.68;;;6.70;;
54699;SDS011;40599;53.132;6.090;2023-03-31T12:26:16;11.68;;;6.15;;
54699;SDS011;40599;53.132;6.090;2023-03-31T12:28:49;13.20;;;6.37;;
54699;SDS011;40599;53.132;6.090;2023-03-31T12:31:19;10.77;;;6.23;;
54699;SDS011;40599;53.132;6.090;2023-03-31T12:33:50;12.65;;;7.07;;
54699;SDS011;40599;53.132;6.090;2023-03-31T12:52:01;14.90;;;6.18;;
54699;SDS011;40599;53.132;6.090;2023-03-31T12:57:18;11.77;;;5.63;;
54699;SDS011;40599;53.132;6.090;2023-03-31T12:59:45;16.10;;;5.83;;
54699;SDS011;40599;53.132;6.090;2023-03-31T13:02:30;14.07;;;6.05;;
54699;SDS011;40599;53.132;6.090;2023-03-31T13:04:57;11.95;;;5.18;;
54699;SDS011;40599;53.132;6.090;2023-03-31T13:09:55;13.80;;;6.57;;
54699;SDS011;40599;53.132;6.090;2023-03-31T13:12:22;9.27;;;5.60;;
54699;SDS011;40599;53.132;6.090;2023-03-31T13:14:52;8.63;;;5.33;;
54699;SDS011;40599;53.132;6.090;2023-03-31T13:17:31;11.27;;;5.30;;
54699;SDS011;40599;53.132;6.090;2023-03-31T13:22:45;8.15;;;4.90;;
54699;SDS011;40599;53.132;6.090;2023-03-31T13:27:52;11.50;;;4.88;;
54699;SDS011;40599;53.132;6.090;2023-03-31T13:33:11;11.23;;;4.63;;
54699;SDS011;40599;53.132;6.090;2023-03-31T13:35:40;7.70;;;4.68;;
54699;SDS011;40599;53.132;6.090;2023-03-31T13:38:12;8.65;;;4.40;;
54699;SDS011;40599;53.132;6.090;2023-03-31T13:40:55;8.50;;;4.50;;
54699;SDS011;40599;53.132;6.090;2023-03-31T13:49:06;8.45;;;4.22;;
54699;SDS011;40599;53.132;6.090;2023-03-31T13:54:29;11.93;;;5.22;;
54699;SDS011;40599;53.132;6.090;2023-03-31T14:09:56;6.97;;;4.67;;
54699;SDS011;40599;53.132;6.090;2023-03-31T14:14:52;7.95;;;4.50;;
54699;SDS011;40599;53.132;6.090;2023-03-31T14:17:19;10.70;;;4.55;;
54699;SDS011;40599;53.132;6.090;2023-03-31T14:19:50;10.60;;;3.85;;
54699;SDS011;40599;53.132;6.090;2023-03-31T14:25:06;10.80;;;5.10;;
54699;SDS011;40599;53.132;6.090;2023-03-31T14:27:40;12.07;;;4.73;;
54699;SDS011;40599;53.132;6.090;2023-03-31T14:33:24;7.57;;;4.43;;
54699;SDS011;40599;53.132;6.090;2023-03-31T14:35:30;10.52;;;4.30;;
54699;SDS011;40599;53.132;6.090;2023-03-31T14:38:02;7.80;;;4.10;;
54699;SDS011;40599;53.132;6.090;2023-03-31T14:40:30;7.95;;;4.30;;
54699;SDS011;40599;53.132;6.090;2023-03-31T14:42:56;7.03;;;4.13;;
54699;SDS011;40599;53.132;6.090;2023-03-31T14:45:24;7.43;;;4.03;;
54699;SDS011;40599;53.132;6.090;2023-03-31T14:48:02;8.57;;;4.07;;
54699;SDS011;40599;53.132;6.090;2023-03-31T14:50:30;7.82;;;4.20;;
54699;SDS011;40599;53.132;6.090;2023-03-31T14:52:58;7.18;;;4.20;;
54699;SDS011;40599;53.132;6.090;2023-03-31T14:55:27;10.57;;;4.20;;
54699;SDS011;40599;53.132;6.090;2023-03-31T14:57:54;10.07;;;4.15;;
54699;SDS011;40599;53.132;6.090;2023-03-31T15:00:31;5.93;;;4.13;;
54699;SDS011;40599;53.132;6.090;2023-03-31T15:02:58;11.55;;;4.45;;
54699;SDS011;40599;53.132;6.090;2023-03-31T15:05:33;8.73;;;4.30;;
54699;SDS011;40599;53.132;6.090;2023-03-31T15:08:01;8.68;;;5.40;;
54699;SDS011;40599;53.132;6.090;2023-03-31T15:11:12;10.55;;;5.03;;
54699;SDS011;40599;53.132;6.090;2023-03-31T15:15:49;11.55;;;5.22;;
54699;SDS011;40599;53.132;6.090;2023-03-31T15:18:16;8.43;;;4.45;;
54699;SDS011;40599;53.132;6.090;2023-03-31T15:20:43;6.68;;;4.30;;
54699;SDS011;40599;53.132;6.090;2023-03-31T15:25:49;6.07;;;4.25;;
54699;SDS011;40599;53.132;6.090;2023-03-31T15:28:17;9.73;;;4.38;;
54699;SDS011;40599;53.132;6.090;2023-03-31T15:30:43;7.70;;;3.75;;
54699;SDS011;40599;53.132;6.090;2023-03-31T15:33:18;7.53;;;4.40;;
54699;SDS011;40599;53.132;6.090;2023-03-31T15:35:45;8.10;;;4.05;;
54699;SDS011;40599;53.132;6.090;2023-03-31T15:38:12;8.27;;;4.60;;
54699;SDS011;40599;53.132;6.090;2023-03-31T15:40:42;7.43;;;4.30;;
54699;SDS011;40599;53.132;6.090;2023-03-31T15:43:16;6.47;;;4.32;;
54699;SDS011;40599;53.132;6.090;2023-03-31T15:45:52;8.18;;;4.60;;
54699;SDS011;40599;53.132;6.090;2023-03-31T15:48:27;10.45;;;4.80;;
54699;SDS011;40599;53.132;6.090;2023-03-31T15:51:01;6.22;;;4.20;;
54699;SDS011;40599;53.132;6.090;2023-03-31T15:53:29;8.35;;;4.75;;
54699;SDS011;40599;53.132;6.090;2023-03-31T15:55:56;8.98;;;4.78;;
54699;SDS011;40599;53.132;6.090;2023-03-31T15:58:44;12.97;;;5.17;;
54699;SDS011;40599;53.132;6.090;2023-03-31T16:01:10;11.37;;;4.60;;
54699;SDS011;40599;53.132;6.090;2023-03-31T16:03:39;9.07;;;4.63;;
54699;SDS011;40599;53.132;6.090;2023-03-31T16:06:14;9.88;;;4.70;;
54699;SDS011;40599;53.132;6.090;2023-03-31T16:08:41;9.32;;;4.88;;
54699;SDS011;40599;53.132;6.090;2023-03-31T16:11:14;8.30;;;4.70;;
54699;SDS011;40599;53.132;6.090;2023-03-31T16:13:42;9.53;;;4.77;;
54699;SDS011;40599;53.132;6.090;2023-03-31T16:16:12;10.00;;;4.70;;
54699;SDS011;40599;53.132;6.090;2023-03-31T16:18:39;10.35;;;5.03;;
54699;SDS011;40599;53.132;6.090;2023-03-31T16:21:07;12.93;;;5.20;;
54699;SDS011;40599;53.132;6.090;2023-03-31T16:23:34;12.73;;;4.60;;
54699;SDS011;40599;53.132;6.090;2023-03-31T16:26:04;10.60;;;5.00;;
54699;SDS011;40599;53.132;6.090;2023-03-31T16:28:33;13.17;;;4.93;;
54699;SDS011;40599;53.132;6.090;2023-03-31T16:31:00;11.80;;;4.70;;
54699;SDS011;40599;53.132;6.090;2023-03-31T16:33:27;10.02;;;4.38;;
54699;SDS011;40599;53.132;6.090;2023-03-31T16:35:55;12.50;;;4.90;;
54699;SDS011;40599;53.132;6.090;2023-03-31T16:38:23;11.95;;;5.13;;
54699;SDS011;40599;53.132;6.090;2023-03-31T16:40:51;9.77;;;4.90;;
54699;SDS011;40599;53.132;6.090;2023-03-31T16:43:18;8.05;;;4.78;;
54699;SDS011;40599;53.132;6.090;2023-03-31T16:45:45;8.40;;;5.00;;
54699;SDS011;40599;53.132;6.090;2023-03-31T16:48:12;11.18;;;5.30;;
54699;SDS011;40599;53.132;6.090;2023-03-31T16:50:38;12.82;;;4.70;;
54699;SDS011;40599;53.132;6.090;2023-03-31T16:55:31;11.60;;;5.05;;
54699;SDS011;40599;53.132;6.090;2023-03-31T16:57:57;10.25;;;4.50;;
54699;SDS011;40599;53.132;6.090;2023-03-31T17:00:28;9.27;;;4.95;;
54699;SDS011;40599;53.132;6.090;2023-03-31T17:02:54;11.95;;;4.90;;
54699;SDS011;40599;53.132;6.090;2023-03-31T17:05:21;12.57;;;5.03;;
54699;SDS011;40599;53.132;6.090;2023-03-31T17:07:48;10.55;;;5.30;;
54699;SDS011;40599;53.132;6.090;2023-03-31T17:10:14;9.55;;;4.53;;
54699;SDS011;40599;53.132;6.090;2023-03-31T17:12:40;8.43;;;4.38;;
54699;SDS011;40599;53.132;6.090;2023-03-31T17:15:06;11.43;;;5.32;;
54699;SDS011;40599;53.132;6.090;2023-03-31T17:17:33;9.48;;;4.50;;
54699;SDS011;40599;53.132;6.090;2023-03-31T17:19:59;8.85;;;5.32;;
54699;SDS011;40599;53.132;6.090;2023-03-31T17:22:25;5.80;;;4.30;;
54699;SDS011;40599;53.132;6.090;2023-03-31T17:24:51;7.53;;;4.60;;
54699;SDS011;40599;53.132;6.090;2023-03-31T17:27:22;11.18;;;4.63;;
54699;SDS011;40599;53.132;6.090;2023-03-31T17:29:48;7.03;;;4.53;;
54699;SDS011;40599;53.132;6.090;2023-03-31T17:32:15;9.70;;;4.82;;
54699;SDS011;40599;53.132;6.090;2023-03-31T17:34:41;9.75;;;4.68;;